Edmonton International Airport

CYEG · 艾伯塔, 加拿大

METAR CYEG · Edmonton International Airport

16 四月 20:56 LT
1h
使用的METAR站距离机场286 NM。
罗盘
风向 的 风向 340° Edmonton International Airport 2/20
风: 8 kt, 3 beaufort

5 kt

7 kt
改变
0 ft 1.000 2.000 3.000 4.000 5.000
没有云
METAR KCTB 170256Z AUTO 34008KT 10SM CLR M01/M06 A3006 RMK AO2 SLP206 T10111056 53019

METAR Edmonton International Airport - CYEG/YEG

Edmonton International Airport是,加拿大中的大型机场。 该机场位于纬度53,30871和经度-113,58068。 该机场有2条跑道: 2/20 和 12/30. 本场的ICAO机场代码为CYEG。 该机场的IATA代码为YEG。 机场在Salt Lake FIR中。

该航空气象观测是针对Cut Bank International Airport在2024年4月16日 20:56, 当地时间进行的。

机场观察

风向为340°,速度为8 kt。

可见度为10 mi。

有没有云。 没有观察到天花板。

温度为-1 °C,阵风为-8 °C。 露点为-6 °C,相对湿度为69%。 海平面上的气压为30,06 inHg (QNH)。

白天

今天,太阳从06:28升起,在20:39降落。 这适用于Edmonton International Airport,世界夏令时可能有所不同。 当地时间与世界标准时间之间的时差为-6 小时。 夏令时目前正在进行中。

公司介绍

我们没有关于这个机场的公司信息。

体会

到Vliegles.nl去找飞行课程,跳伞和其他飞行体验。 浏览页面,了解Edmonton International Airport附近所有可用的活动。 你也可以使用搜索功能来寻找你所在地附近的特定飞行课程、跳伞或其他飞行体验。

跑道

Id 标题 侧风 逆风 侧风 %
2/20 035°-215° 7 kt 5 kt 82 %
12/30 135°-315° 3 kt 7 kt 42 %

逆风成分最大的方向会被突出显示,并用于横风计算。 这并不一定意味着这个方向在使用。

乌云

- CLR 没有云

温度 & 天气

温度 -1,1 °C
露点 -5,6 °C
相对湿度 69%
风寒 -8 °C
Kp-index 1 (0-9)

评论

AO2自动气象站,可确定降水类型
SLP206海平面压力为30,14 inHg (30,14 inHg)
T10111056温度为-1,1 °C (30,0 °F),露点为-5,6 °C (21,9 °F)
53019

白天

日出
06:33 (8:32)
中午
13:28
日落
20:24

小工具

你想在你的网站上有一个关于Edmonton International Airport的当前航空天气(METAR)的小部件吗?

显示HTML代码
报告变更